createdAt,value
2018-05-13T00:00:22.684Z,83.14
2018-05-13T00:01:03.250Z,82.85
2018-05-13T00:01:43.851Z,82.79
2018-05-13T00:02:24.454Z,82.75
2018-05-13T00:03:05.032Z,82.75
2018-05-13T00:03:45.604Z,82.79
2018-05-13T00:04:26.175Z,82.75
2018-05-13T00:05:06.735Z,83.04
2018-05-13T00:05:47.304Z,83.14
2018-05-13T00:06:27.891Z,82.56
2018-05-13T00:07:08.469Z,82.79
2018-05-13T00:07:49.037Z,82.79
2018-05-13T00:08:29.607Z,82.56
2018-05-13T00:09:10.153Z,83.18
2018-05-13T00:09:50.723Z,83.14
2018-05-13T00:10:31.311Z,82.85
2018-05-13T00:11:11.904Z,82.94
2018-05-13T00:11:52.469Z,83.33
2018-05-13T00:12:33.106Z,82.85
2018-05-13T00:13:13.651Z,82.94
2018-05-13T00:13:54.220Z,83.23
2018-05-13T00:14:34.758Z,82.85
2018-05-13T00:15:15.342Z,83.14
2018-05-13T00:15:55.934Z,82.85
2018-05-13T00:16:36.508Z,82.94
2018-05-13T00:17:17.076Z,83.23
2018-05-13T00:17:57.630Z,83.42
2018-05-13T00:18:38.209Z,83.42
2018-05-13T00:19:18.756Z,83.71
2018-05-13T00:19:59.321Z,83.71
2018-05-13T00:20:39.894Z,83.14
2018-05-13T00:21:20.461Z,83.52
2018-05-13T00:22:01.026Z,83.52
2018-05-13T00:22:41.589Z,83.42
2018-05-13T00:23:22.149Z,83.14
2018-05-13T00:24:02.716Z,83.23
2018-05-13T00:24:43.274Z,83.23
2018-05-13T00:25:23.851Z,83.23
2018-05-13T00:26:04.416Z,83.14
2018-05-13T00:26:45.000Z,82.85
2018-05-13T00:27:25.560Z,82.94
2018-05-13T00:28:06.144Z,82.94
2018-05-13T00:28:46.712Z,83.04
2018-05-13T00:29:27.280Z,83.42
2018-05-13T00:30:07.840Z,83.23
2018-05-13T00:30:48.412Z,83.33
2018-05-13T00:31:28.977Z,83.91
2018-05-13T00:32:09.542Z,83.42
2018-05-13T00:32:50.116Z,83.61
2018-05-13T00:33:30.680Z,84.09
2018-05-13T00:34:11.242Z,83.81
2018-05-13T00:34:51.803Z,84.28
2018-05-13T00:35:32.373Z,83.91
2018-05-13T00:36:12.935Z,84
2018-05-13T00:36:53.491Z,84
2018-05-13T00:37:34.080Z,83.91
2018-05-13T00:38:14.647Z,84
2018-05-13T00:38:55.201Z,83.81
2018-05-13T00:39:35.793Z,83.91
2018-05-13T00:40:16.366Z,83.71
2018-05-13T00:40:56.927Z,83.81
2018-05-13T00:41:37.481Z,83.81
2018-05-13T00:42:18.075Z,83.81
2018-05-13T00:42:58.640Z,83.91
2018-05-13T00:43:39.215Z,84.09
2018-05-13T00:44:19.785Z,83.52
2018-05-13T00:45:00.387Z,83.71
2018-05-13T00:45:40.912Z,83.91
2018-05-13T00:46:21.467Z,84.38
2018-05-13T00:47:02.036Z,84.09
2018-05-13T00:47:42.585Z,84.09
2018-05-13T00:48:23.135Z,84
2018-05-13T00:49:03.718Z,84
2018-05-13T00:49:44.282Z,84.28
2018-05-13T00:50:24.835Z,84.58
2018-05-13T00:51:05.398Z,84.28
2018-05-13T00:51:45.975Z,84.19
2018-05-13T00:52:26.535Z,84.38
2018-05-13T00:53:07.118Z,84.19
2018-05-13T00:53:47.657Z,84.67
2018-05-13T00:54:28.223Z,84.67
2018-05-13T00:55:08.816Z,84.58
2018-05-13T00:55:49.381Z,84.58
2018-05-13T00:56:29.937Z,84.58
2018-05-13T00:57:10.488Z,84.48
2018-05-13T00:57:51.119Z,84.58
2018-05-13T00:58:31.676Z,84.58
2018-05-13T00:59:12.216Z,84.67
2018-05-13T00:59:52.770Z,84.67
2018-05-13T01:00:33.318Z,84.58
2018-05-13T01:01:13.888Z,84.67
2018-05-13T01:01:54.459Z,84.58
2018-05-13T01:02:35.030Z,84.67
2018-05-13T01:03:15.588Z,84.95
2018-05-13T01:03:56.144Z,85.05
2018-05-13T01:04:36.710Z,84.86
2018-05-13T01:05:17.251Z,84.86
2018-05-13T01:05:57.808Z,84.95
2018-05-13T01:06:38.379Z,84.77
2018-05-13T01:07:18.950Z,84.95
2018-05-13T01:07:59.506Z,84.67
2018-05-13T01:08:40.077Z,84.58
2018-05-13T01:09:20.646Z,84.86
2018-05-13T01:10:01.186Z,85.25
2018-05-13T01:10:41.737Z,85.34
2018-05-13T01:11:22.317Z,85.25
2018-05-13T01:12:02.883Z,85.25
2018-05-13T01:12:43.450Z,85.15
2018-05-13T01:13:24.013Z,85.25
2018-05-13T01:14:04.580Z,85.05
2018-05-13T01:14:45.147Z,85.44
2018-05-13T01:15:25.700Z,85.44
2018-05-13T01:16:06.264Z,85.44
2018-05-13T01:16:46.838Z,85.44
2018-05-13T01:17:27.498Z,85.82
2018-05-13T01:18:08.099Z,85.44
2018-05-13T01:18:48.689Z,85.63
2018-05-13T01:19:29.256Z,85.72
2018-05-13T01:20:09.846Z,85.72
2018-05-13T01:20:50.410Z,85.53
2018-05-13T01:21:30.968Z,85.25
2018-05-13T01:22:11.576Z,85.53
2018-05-13T01:22:52.169Z,85.92
2018-05-13T01:23:32.705Z,85.44
2018-05-13T01:24:13.327Z,85.44
2018-05-13T01:24:53.944Z,85.63
2018-05-13T01:25:34.496Z,85.72
2018-05-13T01:26:15.070Z,85.53
2018-05-13T01:26:55.646Z,86.01
2018-05-13T01:27:36.217Z,86.21
2018-05-13T01:28:16.788Z,85.92
2018-05-13T01:28:57.341Z,86.11
2018-05-13T01:29:37.982Z,86.01
2018-05-13T01:30:18.557Z,86.3
2018-05-13T01:30:59.121Z,86.01
2018-05-13T01:31:39.675Z,86.01
2018-05-13T01:32:20.245Z,86.11
2018-05-13T01:33:00.815Z,86.01
2018-05-13T01:33:41.382Z,86.11
2018-05-13T01:34:21.946Z,85.92
2018-05-13T01:35:02.515Z,86.11
2018-05-13T01:35:43.090Z,86.21
2018-05-13T01:36:23.640Z,86.01
2018-05-13T01:37:04.213Z,86.21
2018-05-13T01:37:44.768Z,86.11
2018-05-13T01:38:25.354Z,85.63
2018-05-13T01:39:05.911Z,85.63
2018-05-13T01:39:46.467Z,86.21
2018-05-13T01:40:27.034Z,85.82
2018-05-13T01:41:07.595Z,86.01
2018-05-13T01:41:48.178Z,86.11
2018-05-13T01:42:28.799Z,86.21
2018-05-13T01:43:09.356Z,86.58
2018-05-13T01:43:49.886Z,86.78
2018-05-13T01:44:30.449Z,86.4
2018-05-13T01:45:11.017Z,86.68
2018-05-13T01:45:51.630Z,86.68
2018-05-13T01:46:32.197Z,86.68
2018-05-13T01:47:12.778Z,86.58
2018-05-13T01:47:53.337Z,86.4
2018-05-13T01:48:33.911Z,86.49
2018-05-13T01:49:14.482Z,86.21
2018-05-13T01:49:55.054Z,86.68
2018-05-13T01:50:35.612Z,86.78
2018-05-13T01:51:16.156Z,86.74
2018-05-13T01:51:56.726Z,86.78
2018-05-13T01:52:37.277Z,86.68
2018-05-13T01:53:17.846Z,86.68
2018-05-13T01:53:58.433Z,86.64
2018-05-13T01:54:38.999Z,86.78
2018-05-13T01:55:19.630Z,86.88
2018-05-13T01:56:00.195Z,86.88
2018-05-13T01:56:40.752Z,86.78
2018-05-13T01:57:21.299Z,86.78
2018-05-13T01:58:01.868Z,86.58
2018-05-13T01:58:42.443Z,86.4
2018-05-13T01:59:23.008Z,86.68
2018-05-13T02:00:03.576Z,87.26
2018-05-13T02:00:44.153Z,87.07
2018-05-13T02:01:24.719Z,87.26
2018-05-13T02:02:05.284Z,86.97
2018-05-13T02:02:45.865Z,87.26
2018-05-13T02:03:26.443Z,86.88
2018-05-13T02:04:07.030Z,86.88
2018-05-13T02:04:47.608Z,86.97
2018-05-13T02:05:28.175Z,86.88
2018-05-13T02:06:08.785Z,86.68
2018-05-13T02:06:49.342Z,86.97
2018-05-13T02:07:29.952Z,86.97
2018-05-13T02:08:10.499Z,87.64
2018-05-13T02:08:51.111Z,87.45
2018-05-13T02:09:31.669Z,87.45
2018-05-13T02:10:12.233Z,87.74
2018-05-13T02:10:52.790Z,87.55
2018-05-13T02:11:33.346Z,87.55
2018-05-13T02:12:13.904Z,87.35
2018-05-13T02:12:54.469Z,87.45
2018-05-13T02:13:35.022Z,86.97
2018-05-13T02:14:15.606Z,86.88
2018-05-13T02:14:56.169Z,86.68
2018-05-13T02:15:36.744Z,87.16
2018-05-13T02:16:17.386Z,86.78
2018-05-13T02:16:57.954Z,87.26
2018-05-13T02:17:38.527Z,87.02
2018-05-13T02:18:19.084Z,87.74
2018-05-13T02:18:59.654Z,87.55
2018-05-13T02:19:40.218Z,87.41
2018-05-13T02:20:20.775Z,87.31
2018-05-13T02:21:01.332Z,87.45
2018-05-13T02:21:41.916Z,87.74
2018-05-13T02:22:22.476Z,87.74
2018-05-13T02:23:03.052Z,87.35
2018-05-13T02:23:43.623Z,87.45
2018-05-13T02:24:24.247Z,87.55
2018-05-13T02:25:04.808Z,87.55
2018-05-13T02:25:45.394Z,87.55
2018-05-13T02:26:25.984Z,87.74
2018-05-13T02:27:06.549Z,87.74
2018-05-13T02:27:47.159Z,87.74
2018-05-13T02:28:27.724Z,87.45
2018-05-13T02:29:08.271Z,87.74
2018-05-13T02:29:48.830Z,87.74
2018-05-13T02:30:29.399Z,87.74
2018-05-13T02:31:09.971Z,87.64
2018-05-13T02:31:50.557Z,87.84
2018-05-13T02:32:31.109Z,87.35
2018-05-13T02:33:11.671Z,87.55
2018-05-13T02:33:52.231Z,87.74
2018-05-13T02:34:32.788Z,87.45
2018-05-13T02:35:13.367Z,87.74
2018-05-13T02:35:53.929Z,87.5
2018-05-13T02:36:34.493Z,87.31
2018-05-13T02:37:15.073Z,87.26
2018-05-13T02:37:55.637Z,87.64
2018-05-13T02:38:36.197Z,87.55
2018-05-13T02:39:16.768Z,87.64
2018-05-13T02:39:57.364Z,87.45
2018-05-13T02:40:37.917Z,87.64
2018-05-13T02:41:18.505Z,87.55
2018-05-13T02:41:59.055Z,87.55
2018-05-13T02:42:39.616Z,87.64
2018-05-13T02:43:20.167Z,87.26
2018-05-13T02:44:00.734Z,87.35
2018-05-13T02:44:41.296Z,87.26
2018-05-13T02:45:21.921Z,87.45
2018-05-13T02:46:02.482Z,87.64
2018-05-13T02:46:43.044Z,87.93
2018-05-13T02:47:23.611Z,87.74
2018-05-13T02:48:04.166Z,88.12
2018-05-13T02:48:44.727Z,88.02
2018-05-13T02:49:25.280Z,88.02
2018-05-13T02:50:05.855Z,87.93
2018-05-13T02:50:46.416Z,87.84
2018-05-13T02:51:26.982Z,87.6
2018-05-13T02:52:07.551Z,87.6
2018-05-13T02:52:48.130Z,87.74
2018-05-13T02:53:28.688Z,88.27
2018-05-13T02:54:09.261Z,88.22
2018-05-13T02:54:49.854Z,87.74
2018-05-13T02:55:30.411Z,88.02
2018-05-13T02:56:10.977Z,87.79
2018-05-13T02:56:51.528Z,88.51
2018-05-13T02:57:32.112Z,88.6
2018-05-13T02:58:12.678Z,88.46
2018-05-13T02:58:53.241Z,88.46
2018-05-13T02:59:33.810Z,88.37
2018-05-13T03:00:14.376Z,88.56
2018-05-13T03:00:54.927Z,88.46
2018-05-13T03:01:35.500Z,88.56
2018-05-13T03:02:16.072Z,88.27
2018-05-13T03:02:56.670Z,88.75
2018-05-13T03:03:37.244Z,88.75
2018-05-13T03:04:17.818Z,89.23
2018-05-13T03:04:58.393Z,88.75
2018-05-13T03:05:38.928Z,89.32
2018-05-13T03:06:19.500Z,88.84
2018-05-13T03:07:00.057Z,88.56
2018-05-13T03:07:40.641Z,89.23
2018-05-13T03:08:21.200Z,88.84
2018-05-13T03:09:01.767Z,89.23
2018-05-13T03:09:42.318Z,89.04
2018-05-13T03:10:22.892Z,89.32
2018-05-13T03:11:03.491Z,89.32
2018-05-13T03:11:44.042Z,89.23
2018-05-13T03:12:24.590Z,88.94
2018-05-13T03:13:05.126Z,89.8
2018-05-13T03:13:45.726Z,89.8
2018-05-13T03:14:26.263Z,89.71
2018-05-13T03:15:06.842Z,89.8
2018-05-13T03:15:47.416Z,89.71
2018-05-13T03:16:27.983Z,89.71
2018-05-13T03:17:08.599Z,89.61
2018-05-13T03:17:49.148Z,89.8
2018-05-13T03:18:29.767Z,89.71
2018-05-13T03:19:10.316Z,89.71
2018-05-13T03:19:50.899Z,89.61
2018-05-13T03:20:31.472Z,89.61
2018-05-13T03:21:12.035Z,89.71
2018-05-13T03:21:52.598Z,89.51
2018-05-13T03:22:33.137Z,89.61
2018-05-13T03:23:13.713Z,89.51
2018-05-13T03:23:54.268Z,89.32
2018-05-13T03:24:34.853Z,89.42
2018-05-13T03:25:15.407Z,89.42
2018-05-13T03:25:55.966Z,89.32
2018-05-13T03:26:36.517Z,89.71
2018-05-13T03:27:17.087Z,89.51
2018-05-13T03:27:57.659Z,89.71
2018-05-13T03:28:38.235Z,89.42
2018-05-13T03:29:18.777Z,90.19
2018-05-13T03:29:59.353Z,90.19
2018-05-13T03:30:39.930Z,90.19
2018-05-13T03:31:20.484Z,90.09
2018-05-13T03:32:01.025Z,90
2018-05-13T03:32:41.601Z,90
2018-05-13T03:33:22.146Z,90.09
2018-05-13T03:34:02.701Z,89.8
2018-05-13T03:34:43.248Z,90
2018-05-13T03:35:23.824Z,90.47
2018-05-13T03:36:04.386Z,90.09
2018-05-13T03:36:44.945Z,90.38
2018-05-13T03:37:25.543Z,89.9
2018-05-13T03:38:06.087Z,90.38
2018-05-13T03:38:46.678Z,90.38
2018-05-13T03:39:27.295Z,90.67
2018-05-13T03:40:07.866Z,90.47
2018-05-13T03:40:48.412Z,90.38
2018-05-13T03:41:28.981Z,90.09
2018-05-13T03:42:09.567Z,90.19
2018-05-13T03:42:50.127Z,90.38
2018-05-13T03:43:30.708Z,90.67
2018-05-13T03:44:11.248Z,90.76
2018-05-13T03:44:51.821Z,90.57
2018-05-13T03:45:32.385Z,90.95
2018-05-13T03:46:12.940Z,90.57
2018-05-13T03:46:53.511Z,90.57
2018-05-13T03:47:34.072Z,90.76
2018-05-13T03:48:14.636Z,90.86
2018-05-13T03:48:55.236Z,90.38
2018-05-13T03:49:35.798Z,90.38
2018-05-13T03:50:16.360Z,91.05
2018-05-13T03:50:56.903Z,91.14
2018-05-13T03:51:37.510Z,90.86
2018-05-13T03:52:18.088Z,90.57
2018-05-13T03:52:58.632Z,90.57
2018-05-13T03:53:39.192Z,90.67
2018-05-13T03:54:19.769Z,90.57
2018-05-13T03:55:00.327Z,90.67
2018-05-13T03:55:40.895Z,90.76
2018-05-13T03:56:21.464Z,90.67
2018-05-13T03:57:02.018Z,90.76
2018-05-13T03:57:42.600Z,90.76
2018-05-13T03:58:23.161Z,90.76
2018-05-13T03:59:03.735Z,90.76
2018-05-13T03:59:44.326Z,90.76
2018-05-13T04:00:24.872Z,90.76
2018-05-13T04:01:05.452Z,90.76
2018-05-13T04:01:46.038Z,90.76
2018-05-13T04:02:26.603Z,90.76
2018-05-13T04:03:07.164Z,90.76
2018-05-13T04:03:47.729Z,90.76
2018-05-13T04:04:28.320Z,90.67
2018-05-13T04:05:08.894Z,90.76
2018-05-13T04:05:49.490Z,90.76
2018-05-13T04:06:30.049Z,90.28
2018-05-13T04:07:10.677Z,90.38
2018-05-13T04:07:51.248Z,90.19
2018-05-13T04:08:31.916Z,90.38
2018-05-13T04:09:12.366Z,90.57
2018-05-13T04:09:52.936Z,90.57
2018-05-13T04:10:33.507Z,90.38
2018-05-13T04:11:14.063Z,90.47
2018-05-13T04:11:54.634Z,90.57
2018-05-13T04:12:35.204Z,90.28
2018-05-13T04:13:15.777Z,90.19
2018-05-13T04:13:56.335Z,90.28
2018-05-13T04:14:36.892Z,90.28
2018-05-13T04:15:17.474Z,90.57
2018-05-13T04:15:58.039Z,90.19
2018-05-13T04:16:38.619Z,90.47
2018-05-13T04:17:19.173Z,90.19
2018-05-13T04:17:59.754Z,90.67
2018-05-13T04:18:40.348Z,90.57
2018-05-13T04:19:20.907Z,90.57
2018-05-13T04:20:01.470Z,90.09
2018-05-13T04:20:42.034Z,90.09
2018-05-13T04:21:22.576Z,90.38
2018-05-13T04:22:03.125Z,89.9
2018-05-13T04:22:43.737Z,90.09
2018-05-13T04:23:24.245Z,90
2018-05-13T04:24:04.821Z,90.19
2018-05-13T04:24:45.392Z,90.19
2018-05-13T04:25:25.967Z,89.71
2018-05-13T04:26:06.532Z,90
2018-05-13T04:26:47.107Z,90.09
2018-05-13T04:27:27.658Z,90.09
2018-05-13T04:28:08.227Z,90.19
2018-05-13T04:28:48.796Z,90
2018-05-13T04:29:29.368Z,90.38
2018-05-13T04:30:09.988Z,90.09
2018-05-13T04:30:50.565Z,89.71
2018-05-13T04:31:31.133Z,89.71
2018-05-13T04:32:11.717Z,89.51
2018-05-13T04:32:52.273Z,89.51
2018-05-13T04:33:32.853Z,89.71
2018-05-13T04:34:13.374Z,89.9
2018-05-13T04:34:53.945Z,89.71
2018-05-13T04:35:34.504Z,89.51
2018-05-13T04:36:15.089Z,89.51
2018-05-13T04:36:55.677Z,89.32
2018-05-13T04:37:36.254Z,89.51
2018-05-13T04:38:16.824Z,89.42
2018-05-13T04:38:57.368Z,89.61
2018-05-13T04:39:37.960Z,89.56
2018-05-13T04:40:18.506Z,89.9
2018-05-13T04:40:59.062Z,89.71
2018-05-13T04:41:39.626Z,88.98
2018-05-13T04:42:20.197Z,89.23
2018-05-13T04:43:00.746Z,89.37
2018-05-13T04:43:41.306Z,89.56
2018-05-13T04:44:21.853Z,89.27
2018-05-13T04:45:02.395Z,89.47
2018-05-13T04:45:42.940Z,89.27
2018-05-13T04:46:23.531Z,88.6
2018-05-13T04:47:04.135Z,88.6
2018-05-13T04:47:44.714Z,88.89
2018-05-13T04:48:25.299Z,88.89
2018-05-13T04:49:05.870Z,88.6
2018-05-13T04:49:46.404Z,88.79
2018-05-13T04:50:26.997Z,88.98
2018-05-13T04:51:07.544Z,88.6
2018-05-13T04:51:48.111Z,88.41
2018-05-13T04:52:28.681Z,88.31
2018-05-13T04:53:09.252Z,88.98
2018-05-13T04:53:49.841Z,88.98
2018-05-13T04:54:30.421Z,88.51
2018-05-13T04:55:10.989Z,88.7
2018-05-13T04:55:51.641Z,88.7
2018-05-13T04:56:32.107Z,88.7
2018-05-13T04:57:12.726Z,88.41
2018-05-13T04:57:53.293Z,88.7
2018-05-13T04:58:33.858Z,88.22
2018-05-13T04:59:14.442Z,88.41
2018-05-13T04:59:54.998Z,88.31
2018-05-13T05:00:35.557Z,88.12
2018-05-13T05:01:16.127Z,87.45
2018-05-13T05:01:56.679Z,87.74
2018-05-13T05:02:37.261Z,87.07
2018-05-13T05:03:17.834Z,86.97
2018-05-13T05:03:58.386Z,87.07
2018-05-13T05:04:38.961Z,87.16
2018-05-13T05:05:19.558Z,86.97
2018-05-13T05:06:01.186Z,86.97
2018-05-13T05:06:42.213Z,87.26
2018-05-13T05:07:25.149Z,87.64
2018-05-13T05:08:06.342Z,87.55
2018-05-13T05:08:47.475Z,87.45
2018-05-13T05:09:30.149Z,87.55
2018-05-13T05:10:11.364Z,87.35
2018-05-13T05:10:53.345Z,87.45
2018-05-13T05:11:34.465Z,87.45
2018-05-13T05:12:18.651Z,87.45
2018-05-13T05:13:00.619Z,86.78
2018-05-13T05:13:42.675Z,86.78
2018-05-13T05:14:23.870Z,87.16
2018-05-13T05:15:06.903Z,87.07
2018-05-13T05:15:48.145Z,86.49
2018-05-13T05:16:29.375Z,86.49
2018-05-13T05:17:10.567Z,86.58
2018-05-13T05:17:52.673Z,86.58
2018-05-13T05:18:34.858Z,86.72
2018-05-13T05:19:17.145Z,86.63
2018-05-13T05:19:58.332Z,86.49
2018-05-13T05:20:39.557Z,86.54
2018-05-13T05:21:20.754Z,86.15
2018-05-13T05:22:02.638Z,86.25
2018-05-13T05:22:44.350Z,86.21
2018-05-13T05:23:26.427Z,85.96
2018-05-13T05:24:07.582Z,86.05
2018-05-13T05:24:49.385Z,85.96
2018-05-13T05:25:30.550Z,86.25
2018-05-13T05:26:11.788Z,86.25
2018-05-13T05:26:52.940Z,85.67
2018-05-13T05:27:35.087Z,86.15
2018-05-13T05:28:16.271Z,86.05
2018-05-13T05:28:58.139Z,85.86
2018-05-13T05:29:39.324Z,85.67
2018-05-13T05:30:20.555Z,85.58
2018-05-13T05:31:01.655Z,85.28
2018-05-13T05:31:42.617Z,85.28
2018-05-13T05:32:23.175Z,84.91
2018-05-13T05:33:03.741Z,84.71
2018-05-13T05:33:44.306Z,84.52
2018-05-13T05:34:24.874Z,84.95
2018-05-13T05:35:05.444Z,84.75
2018-05-13T05:35:46.022Z,84.18
2018-05-13T05:36:26.579Z,83.12
2018-05-13T05:37:07.155Z,83.31
2018-05-13T05:37:47.740Z,83.03
2018-05-13T05:38:28.298Z,82.93
2018-05-13T05:39:08.874Z,81.87
2018-05-13T05:39:49.453Z,82.3
2018-05-13T05:40:30.045Z,82.49
2018-05-13T05:41:10.617Z,81.82
2018-05-13T05:41:51.180Z,81.82
2018-05-13T05:42:31.761Z,81.43
2018-05-13T05:43:12.321Z,80.99
2018-05-13T05:43:52.887Z,80.13
2018-05-13T05:44:33.456Z,80.13
2018-05-13T05:45:14.030Z,79.65
2018-05-13T05:45:54.600Z,79.17
2018-05-13T05:46:35.173Z,78.98
2018-05-13T05:47:15.745Z,78.69
2018-05-13T05:47:56.303Z,78.02
2018-05-13T05:48:37.952Z,77.58
2018-05-13T05:49:18.986Z,77.48
2018-05-13T05:49:59.999Z,77.58
2018-05-13T05:50:40.724Z,77.19
2018-05-13T05:51:21.367Z,76.9
2018-05-13T05:52:01.915Z,77
2018-05-13T05:52:42.480Z,76.94
2018-05-13T05:53:23.083Z,76.56
2018-05-13T05:54:03.647Z,75.88
2018-05-13T05:54:44.255Z,75.11
2018-05-13T05:55:24.823Z,74.44
2018-05-13T05:56:05.402Z,74.82
2018-05-13T05:56:45.970Z,75.02
2018-05-13T05:57:26.538Z,74.67
2018-05-13T05:58:07.113Z,74.48
2018-05-13T05:58:47.660Z,74.57
2018-05-13T05:59:28.216Z,74.29
2018-05-13T06:00:08.804Z,73.13
2018-05-13T06:00:49.381Z,73.22
2018-05-13T06:01:29.956Z,73.03
2018-05-13T06:02:10.522Z,72.68
2018-05-13T06:02:51.098Z,72.2
2018-05-13T06:03:31.660Z,71.34
2018-05-13T06:04:12.261Z,71.04
2018-05-13T06:04:52.823Z,70.09
2018-05-13T06:05:33.384Z,70.47
2018-05-13T06:06:13.957Z,70.76
2018-05-13T06:06:54.521Z,70.66
2018-05-13T06:07:35.110Z,70.66
2018-05-13T06:08:15.659Z,70.09
2018-05-13T06:08:56.230Z,70.09
2018-05-13T06:09:36.787Z,70.56
2018-05-13T06:10:17.352Z,70.66
2018-05-13T06:10:57.942Z,70.66
2018-05-13T06:11:38.521Z,70.76
2018-05-13T06:12:19.190Z,70.41
2018-05-13T06:12:59.689Z,70.12
2018-05-13T06:13:40.283Z,69.45
2018-05-13T06:14:20.847Z,69.64
2018-05-13T06:15:01.399Z,68.96
2018-05-13T06:15:41.968Z,68.61
2018-05-13T06:16:22.554Z,68.04
2018-05-13T06:17:03.127Z,68.13
2018-05-13T06:17:43.688Z,66.88
2018-05-13T06:18:24.255Z,66.69
2018-05-13T06:19:04.821Z,66.3
2018-05-13T06:19:45.438Z,66.2
2018-05-13T06:20:25.941Z,66.39
2018-05-13T06:21:06.573Z,66.3
2018-05-13T06:21:47.147Z,66.04
2018-05-13T06:22:27.742Z,65.66
2018-05-13T06:23:08.305Z,65.47
2018-05-13T06:23:48.890Z,65.17
2018-05-13T06:24:29.458Z,65.17
2018-05-13T06:25:10.046Z,65.27
2018-05-13T06:25:50.598Z,65.17
2018-05-13T06:26:31.158Z,64.98
2018-05-13T06:27:11.725Z,63.82
2018-05-13T06:27:52.304Z,63.92
2018-05-13T06:28:32.886Z,64.11
2018-05-13T06:29:13.482Z,64.11
2018-05-13T06:29:54.039Z,64.4
2018-05-13T06:30:34.617Z,64.11
2018-05-13T06:31:15.195Z,63.54
2018-05-13T06:31:55.846Z,63.28
2018-05-13T06:32:36.400Z,63.76
2018-05-13T06:33:16.972Z,63.18
2018-05-13T06:33:57.536Z,63.18
2018-05-13T06:34:38.184Z,63.37
2018-05-13T06:35:18.765Z,62.6
2018-05-13T06:35:59.327Z,62.89
2018-05-13T06:36:39.894Z,62.7
2018-05-13T06:37:20.493Z,62.89
2018-05-13T06:38:01.051Z,63.47
2018-05-13T06:38:41.618Z,63.37
2018-05-13T06:39:22.176Z,63.18
2018-05-13T06:40:02.767Z,62.6
2018-05-13T06:40:43.366Z,62.22
2018-05-13T06:41:23.908Z,61.38
2018-05-13T06:42:04.475Z,61.19
2018-05-13T06:42:45.092Z,61.57
2018-05-13T06:43:25.641Z,61.96
2018-05-13T06:44:06.223Z,60.71
2018-05-13T06:44:46.821Z,61.09
2018-05-13T06:45:27.392Z,61.67
2018-05-13T06:46:07.961Z,61.96
2018-05-13T06:46:48.533Z,60.8
2018-05-13T06:47:29.120Z,59.93
2018-05-13T06:48:09.698Z,60.51
2018-05-13T06:48:50.289Z,60.89
2018-05-13T06:49:30.868Z,60.8
2018-05-13T06:50:11.459Z,60.99
2018-05-13T06:50:52.124Z,61.09
2018-05-13T06:51:32.648Z,59.83
2018-05-13T06:52:13.210Z,60.41
2018-05-13T06:52:53.817Z,60.16
2018-05-13T06:53:34.375Z,60.13
2018-05-13T06:54:14.941Z,60.16
2018-05-13T06:54:55.504Z,59.48
2018-05-13T06:55:36.086Z,59.19
2018-05-13T06:56:16.660Z,58.9
2018-05-13T06:56:57.243Z,58.61
2018-05-13T06:57:37.861Z,58.51
2018-05-13T06:58:18.438Z,58.32
2018-05-13T06:58:59.017Z,58.61
2018-05-13T06:59:39.591Z,58.8
2018-05-13T07:00:20.159Z,58.9
2018-05-13T07:01:00.730Z,58.7
2018-05-13T07:01:41.304Z,59
2018-05-13T07:02:21.895Z,58.73
2018-05-13T07:03:02.462Z,58.93
2018-05-13T07:03:43.052Z,59.09
2018-05-13T07:04:23.629Z,58.73
2018-05-13T07:05:04.212Z,58.54
2018-05-13T07:05:44.782Z,57.96
2018-05-13T07:06:25.359Z,58.54
2018-05-13T07:07:05.956Z,58.54
2018-05-13T07:07:46.563Z,57.87
2018-05-13T07:08:27.133Z,58.25
2018-05-13T07:09:07.678Z,57.87
2018-05-13T07:09:48.264Z,58.35
2018-05-13T07:10:28.821Z,58.45
2018-05-13T07:11:09.402Z,58.54
2018-05-13T07:11:49.969Z,57.77
2018-05-13T07:12:30.539Z,57.89
2018-05-13T07:13:11.090Z,57.89
2018-05-13T07:13:51.669Z,57.7
2018-05-13T07:14:32.248Z,57.41
2018-05-13T07:15:12.853Z,56.63
2018-05-13T07:15:53.423Z,56.93
2018-05-13T07:16:34.076Z,57.79
2018-05-13T07:17:14.579Z,57.31
2018-05-13T07:17:55.146Z,57.41
2018-05-13T07:18:35.730Z,56.73
2018-05-13T07:19:16.297Z,57.54
2018-05-13T07:19:56.854Z,57.82
2018-05-13T07:20:37.484Z,57.44
2018-05-13T07:21:18.767Z,57.34
2018-05-13T07:21:59.595Z,56.95
2018-05-13T07:22:40.495Z,55.89
2018-05-13T07:23:21.275Z,55.6
2018-05-13T07:24:02.091Z,56.18
2018-05-13T07:24:43.106Z,56.95
2018-05-13T07:25:24.792Z,56.95
2018-05-13T07:26:06.332Z,55.6
2018-05-13T07:26:47.079Z,56.18
2018-05-13T07:27:27.633Z,55.79
2018-05-13T07:28:08.448Z,55.11
2018-05-13T07:28:49.220Z,55.21
2018-05-13T07:29:29.814Z,55.7
2018-05-13T07:30:10.669Z,55.79
2018-05-13T07:30:51.580Z,55.31
2018-05-13T07:31:32.495Z,56.18
2018-05-13T07:32:13.075Z,55.63
2018-05-13T07:32:53.642Z,55.79
2018-05-13T07:33:34.237Z,56.09
2018-05-13T07:34:14.818Z,56.02
2018-05-13T07:34:55.430Z,55.24
2018-05-13T07:35:36.043Z,55.15
2018-05-13T07:36:16.616Z,55.43
2018-05-13T07:36:57.171Z,54.37
2018-05-13T07:37:37.758Z,54.95
2018-05-13T07:38:18.380Z,55.63
2018-05-13T07:38:58.960Z,55.73
2018-05-13T07:39:39.540Z,55.15
2018-05-13T07:40:20.124Z,54.66
2018-05-13T07:41:00.698Z,54.47
2018-05-13T07:41:41.298Z,54.17
2018-05-13T07:42:21.870Z,53.11
2018-05-13T07:43:02.437Z,53.89
2018-05-13T07:43:43.009Z,53.59
2018-05-13T07:44:23.586Z,52.34
2018-05-13T07:45:04.168Z,52.82
2018-05-13T07:45:44.754Z,52.44
2018-05-13T07:46:25.333Z,53.02
2018-05-13T07:47:05.912Z,52.82
2018-05-13T07:47:46.487Z,53.21
2018-05-13T07:48:27.068Z,53.41
2018-05-13T07:49:07.685Z,53.21
2018-05-13T07:49:48.284Z,53.5
2018-05-13T07:50:28.951Z,53.02
2018-05-13T07:51:09.517Z,53.69
2018-05-13T07:51:50.127Z,51.76
2018-05-13T07:52:30.709Z,52.53
2018-05-13T07:53:11.296Z,52.63
2018-05-13T07:53:51.876Z,52.44
2018-05-13T07:54:32.486Z,53.02
2018-05-13T07:55:13.064Z,52.53
2018-05-13T07:55:53.628Z,52.53
2018-05-13T07:56:34.182Z,53.5
2018-05-13T07:57:14.760Z,51.56
2018-05-13T07:57:55.417Z,51.56
2018-05-13T07:58:35.939Z,53.11
2018-05-13T07:59:16.505Z,53.31
2018-05-13T07:59:57.086Z,52.92
2018-05-13T08:00:37.645Z,51.66
2018-05-13T08:01:18.240Z,51.86
2018-05-13T08:01:58.796Z,52.53
2018-05-13T08:02:39.366Z,51.86
2018-05-13T08:03:19.956Z,52.34
2018-05-13T08:04:00.552Z,52.36
2018-05-13T08:04:41.087Z,51.37
2018-05-13T08:05:21.668Z,51.1
2018-05-13T08:06:02.274Z,52.56
2018-05-13T08:06:42.868Z,50.43
2018-05-13T08:07:23.445Z,50.5
2018-05-13T08:08:04.039Z,50.79
2018-05-13T08:08:44.688Z,49.73
2018-05-13T08:09:25.345Z,50.89
2018-05-13T08:10:06.203Z,51.59
2018-05-13T08:10:46.772Z,50.62
2018-05-13T08:11:27.359Z,49.63
2018-05-13T08:12:07.956Z,49.82
2018-05-13T08:12:48.570Z,49.63
2018-05-13T08:13:29.143Z,47.79
2018-05-13T08:14:09.871Z,47.79
2018-05-13T08:14:50.361Z,48.86
2018-05-13T08:15:31.017Z,49.05
2018-05-13T08:16:11.642Z,48.47
2018-05-13T08:16:52.231Z,48.27
2018-05-13T08:17:32.851Z,48.57
2018-05-13T08:18:13.431Z,48.95
2018-05-13T08:18:54.042Z,48.49
2018-05-13T08:19:34.676Z,48.11
2018-05-13T08:20:15.285Z,47.89
2018-05-13T08:20:55.853Z,47.11
2018-05-13T08:21:36.418Z,47.31
2018-05-13T08:22:17.007Z,47.99
2018-05-13T08:22:57.580Z,47.89
2018-05-13T08:23:38.245Z,46.92
2018-05-13T08:24:18.816Z,47.02
2018-05-13T08:24:59.393Z,46.73
2018-05-13T08:25:39.993Z,46.83
2018-05-13T08:26:20.567Z,46.25
2018-05-13T08:27:01.148Z,47.11
2018-05-13T08:27:41.742Z,47.02
2018-05-13T08:28:22.317Z,45.95
2018-05-13T08:29:02.901Z,45.18
2018-05-13T08:29:43.525Z,46.03
2018-05-13T08:30:24.120Z,45.76
2018-05-13T08:31:04.683Z,46.73
2018-05-13T08:31:45.295Z,46.34
2018-05-13T08:32:25.843Z,46.25
2018-05-13T08:33:06.434Z,47.11
2018-05-13T08:33:47.093Z,46.05
2018-05-13T08:34:27.656Z,45.93
2018-05-13T08:35:08.242Z,46.05
2018-05-13T08:35:48.818Z,46.25
2018-05-13T08:36:29.442Z,45.76
2018-05-13T08:37:10.036Z,46.34
2018-05-13T08:37:50.649Z,46.63
2018-05-13T08:38:31.213Z,46.92
2018-05-13T08:39:11.783Z,45.37
2018-05-13T08:39:52.364Z,44.4
2018-05-13T08:40:32.925Z,44.02
2018-05-13T08:41:13.522Z,44.31
2018-05-13T08:41:54.135Z,44.6
2018-05-13T08:42:34.645Z,43.54
2018-05-13T08:43:15.230Z,43.15
2018-05-13T08:43:55.811Z,43.54
2018-05-13T08:44:36.390Z,42.57
2018-05-13T08:45:16.968Z,43.44